Classifiche di sempre
Migliori tempi personali validi di team tra tutti gli eventi e le stagioni. Ogni team compare una sola volta per divisione.
Cerca per nome e apri la pagina in cui è classificato questo record di divisione.
135,116 team in classifica
| Pos. | Pos. AG | Team | Nazionalità | Categoria età | TempoMiglior tempo | Distacco |
|---|---|---|---|---|---|---|
| 123426 | #4050 | Fadila Beaufilz & Christophe BeaufilzFRA · X 45-49 · AG #4050 | FRA | X 45-49 | 1:45:54 | +56:41 |
| 123427 | #43603 | Anne Taii & Otto VaigafaX 30-34 · AG #43603 | -- | X 30-34 | 1:45:54 | +56:41 |
| 123428 | #43604 | Alistair Monro & Nicola MonroGBR · X 30-34 · AG #43604 | GBR | X 30-34 | 1:45:54 | +56:41 |
| 123429 | #43605 | Frank Wolkenstörfer & Anna EbersbergerGER · X 30-34 · AG #43605 | GER | X 30-34 | 1:45:54 | +56:41 |
| 123430 | -- | Mohammed Fairoz & Justine Dela CruzX XU29 | -- | X XU29 | 1:45:54 | +56:41 |
| 123431 | #190 | Kevin Hume & Dawn LarsonUSA · X 60-64 · AG #190 | USA | X 60-64 | 1:45:54 | +56:41 |
| 123432 | #16438 | 啟漢 蕭 & WEI TING TsengTPE · X 40-44 · AG #16438 | TPE | X 40-44 | 1:45:54 | +56:41 |
| 123433 | #43606 | Worawan Tabnoi & Preedee KhaniyoTHA · X 30-34 · AG #43606 | THA | X 30-34 | 1:45:54 | +56:41 |
| 123434 | #15235 | Aaron Mckeown & Hollie PriceGBR · X 35-39 · AG #15235 | GBR | X 35-39 | 1:45:54 | +56:41 |
| 123435 | #43607 | Elen Skyrme-James & Will Skyrme-JamesGBR · X 30-34 · AG #43607 | GBR | X 30-34 | 1:45:54 | +56:41 |
| 123436 | #18979 | Itzel Vigueras & Jaime GutiérrezMEX · X 25-29 · AG #18979 | MEX | X 25-29 | 1:45:55 | +56:42 |
| 123437 | #16439 | khangwe Ramaano & Nomthi LenyaiRSA · X 40-44 · AG #16439 | RSA | X 40-44 | 1:45:55 | +56:42 |
| 123438 | #4051 | Michael Gooch & Jessica GoochUSA · X 45-49 · AG #4051 | USA | X 45-49 | 1:45:55 | +56:42 |
| 123439 | #15236 | Yuen Ting Leung & Yick Cheung FanCHN · X 35-39 · AG #15236 | CHN | X 35-39 | 1:45:55 | +56:42 |
| 123440 | #43608 | Nicole Bailey & Jaco Du PreezX 30-34 · AG #43608 | -- | X 30-34 | 1:45:55 | +56:42 |
| 123441 | #43609 | Meredith Hunt & Jon HuntUSA · X 30-34 · AG #43609 | USA | X 30-34 | 1:45:55 | +56:42 |
| 123442 | -- | Matthew Green & Becky StoneyX XU29 | -- | X XU29 | 1:45:55 | +56:42 |
| 123443 | #43611 | Shauna Cohan & Shane MccoyIRL · X 30-34 · AG #43611 | IRL | X 30-34 | 1:45:55 | +56:42 |
| 123444 | #43610 | Lyndsey Cole & Neil ColeGBR · X 30-34 · AG #43610 | GBR | X 30-34 | 1:45:55 | +56:42 |
| 123445 | #43612 | Kelly Mullen & Kevin PfeilUSA · X 30-34 · AG #43612 | USA | X 30-34 | 1:45:55 | +56:42 |
| 123446 | #15237 | 娇 杨 & 跃飞 吕CHN · X 35-39 · AG #15237 | CHN | X 35-39 | 1:45:55 | +56:42 |
| 123447 | #4052 | FK FIRMANSYAH & MERRY KERISTI DEWIINA · X 45-49 · AG #4052 | INA | X 45-49 | 1:45:55 | +56:42 |
| 123448 | #8373 | Victor Alfaro & Alejandra Diaz MartinezMEX · X 16-24 · AG #8373 | MEX | X 16-24 | 1:45:55 | +56:42 |
| 123449 | #18980 | Mauricio Valencia Moreno & Andrea Iveth Zea MoralesMEX · X 25-29 · AG #18980 | MEX | X 25-29 | 1:45:55 | +56:42 |
| 123450 | #43613 | CHIYUAN TANG & SIHCI LINTPE · X 30-34 · AG #43613 | TPE | X 30-34 | 1:45:55 | +56:42 |
Pagina 4,938 di 5,405